Zenken Maru — JG5556 — position and weather

sailwx.info

Track history (hours):
 
Tides and Currents Weather Stations Pressure Air Temp Water Temp Dewpoint Dewpoint Depression Visibility Wind Speed Wind Dir Waves Ship Positions

Zenken Maru

Last reported at 2014-Sep-22 07:32 UTC. Time now 2014-Sep-22 08:13 UTC.
Position N 35°21' E 139°41'.

Length 98 m; draft 7.2 m.

Type: Cargo ship. MMSI: 431100955.

Date/timePositionNaut miles runAvg speedWind from/ knotsBaromVisibWave heightAir tempDewpointWater temp
2014-Sep-22 07:32N 35°21' E 139°41'3 2.6
2014-Sep-22 06:31N 35°23' E 139°39'0 0.0
2014-Sep-22 05:31N 35°23' E 139°39'0 0.0
2014-Sep-22 04:31N 35°23' E 139°39'0 0.0
2014-Sep-22 03:31N 35°23' E 139°39'0 0.0
2014-Sep-22 02:31N 35°23' E 139°39'0 0.0
2014-Sep-22 01:31N 35°23' E 139°39'0 0.0
2014-Sep-22 00:31N 35°23' E 139°39'0 0.0
2014-Sep-21 23:31N 35°23' E 139°39'0 0.3
2014-Sep-21 22:33N 35°24' E 139°39'3 2.9
2014-Sep-21 21:32N 35°21' E 139°41'0 0.0
2014-Sep-21 20:32N 35°21' E 139°41'0 0.0
2014-Sep-21 19:32N 35°21' E 139°41'0 0.0
2014-Sep-21 18:32N 35°21' E 139°41'0 0.0
2014-Sep-21 17:32N 35°21' E 139°41'0 0.0
2014-Sep-21 16:32N 35°21' E 139°41'0 0.0
2014-Sep-21 15:32N 35°21' E 139°41'0 0.0
2014-Sep-21 14:32N 35°21' E 139°41'0 0.0
2014-Sep-21 13:32N 35°21' E 139°41'0 0.0
2014-Sep-21 12:32N 35°21' E 139°41'0 0.0
2014-Sep-21 11:32N 35°21' E 139°41'0 0.0
2014-Sep-21 10:32N 35°21' E 139°41'0 0.0
2014-Sep-21 09:32N 35°21' E 139°41'0 0.0
2014-Sep-21 08:32N 35°21' E 139°41'0 0.0
2014-Sep-21 07:32N 35°21' E 139°41'0 0.0
2014-Sep-21 06:32N 35°21' E 139°41'0 0.0
2014-Sep-21 05:32N 35°21' E 139°41'0 0.0
2014-Sep-21 04:32N 35°21' E 139°41'0 0.0
2014-Sep-21 03:32N 35°21' E 139°41'0 0.0
2014-Sep-21 02:32N 35°21' E 139°41'0 0.0
2014-Sep-21 01:32N 35°21' E 139°41'0 0.0
2014-Sep-21 00:32N 35°21' E 139°41'0 0.0
2014-Sep-20 23:32N 35°21' E 139°41'0 0.0
2014-Sep-20 22:32N 35°21' E 139°41'0 0.0
2014-Sep-20 21:32N 35°21' E 139°41'0 0.0
2014-Sep-20 20:32N 35°21' E 139°41'0 0.0
2014-Sep-20 19:32N 35°21' E 139°41'0 0.0
2014-Sep-20 18:32N 35°21' E 139°41'0 0.0
2014-Sep-20 17:32N 35°21' E 139°41'0 0.0
2014-Sep-20 16:32N 35°21' E 139°41'0 0.0
2014-Sep-20 15:32N 35°21' E 139°41'0 0.0
2014-Sep-20 14:32N 35°21' E 139°41'0 0.0
2014-Sep-20 13:32N 35°21' E 139°41'0 0.0
2014-Sep-20 12:29N 35°21' E 139°41'0 0.0
2014-Sep-20 11:32N 35°21' E 139°41'0 0.0
2014-Sep-20 10:32N 35°21' E 139°41'0 0.0
2014-Sep-20 09:32N 35°21' E 139°41'0 0.0
2014-Sep-20 08:32N 35°21' E 139°41'0 0.0
2014-Sep-20 07:32N 35°21' E 139°41'0 0.0
2014-Sep-20 06:32N 35°21' E 139°41'0 0.0
2014-Sep-20 05:32N 35°21' E 139°41'0 0.0
2014-Sep-20 04:32N 35°21' E 139°41'0 0.0
2014-Sep-20 03:32N 35°21' E 139°41'0 0.0
2014-Sep-20 02:32N 35°21' E 139°41'0 0.0
2014-Sep-20 01:32N 35°21' E 139°41'0 0.0
2014-Sep-20 00:32N 35°21' E 139°41'0 0.0
2014-Sep-19 23:32N 35°21' E 139°41'0 0.0
2014-Sep-19 22:32N 35°21' E 139°41'0 0.0
2014-Sep-19 21:32N 35°21' E 139°41'0 0.0
2014-Sep-19 20:32N 35°21' E 139°41'0 0.0
2014-Sep-19 19:32N 35°21' E 139°41'0 0.0
2014-Sep-19 18:29N 35°21' E 139°41'0 0.1
2014-Sep-19 17:33N 35°21' E 139°41'1010.1
2014-Sep-19 16:33N 35°12' E 139°47'2 0.1
2014-Sep-18 05:30N 35°10' E 139°46'1111.5
2014-Sep-18 04:33N 35°20' E 139°42'4 3.5
2014-Sep-18 03:29N 35°23' E 139°39'0 0.0
2014-Sep-18 02:32N 35°23' E 139°39'0 0.0
2014-Sep-18 01:32N 35°23' E 139°39'0 0.0
2014-Sep-18 00:32N 35°23' E 139°39'0 0.0
2014-Sep-17 23:32N 35°23' E 139°39'0 0.0
2014-Sep-17 22:32N 35°23' E 139°39'0 0.0
2014-Sep-17 21:32N 35°23' E 139°39'0 0.0
2014-Sep-17 20:32N 35°23' E 139°39'0 0.0
2014-Sep-17 19:32N 35°23' E 139°39'0 0.0
2014-Sep-17 18:32N 35°23' E 139°39'0 0.0
2014-Sep-17 17:32N 35°23' E 139°39'0 0.0
2014-Sep-17 16:32N 35°23' E 139°39'0 0.0
2014-Sep-17 15:32N 35°23' E 139°39'0 0.0
2014-Sep-17 14:32N 35°23' E 139°39'0 0.0
2014-Sep-17 13:32N 35°23' E 139°39'0 0.0
2014-Sep-17 12:32N 35°23' E 139°39'0 0.0
2014-Sep-17 11:32N 35°23' E 139°39'0 0.0
2014-Sep-17 10:32N 35°23' E 139°39'0 0.0
2014-Sep-17 09:32N 35°23' E 139°39'0 0.0
2014-Sep-17 08:32N 35°23' E 139°39'0 0.0
2014-Sep-17 07:26N 35°23' E 139°39'0 0.0
2014-Sep-17 06:32N 35°23' E 139°39'0 0.0
2014-Sep-17 05:32N 35°23' E 139°39'0 0.0
2014-Sep-17 04:32N 35°23' E 139°39'0 0.3
2014-Sep-17 03:33N 35°23' E 139°39'3 2.6
2014-Sep-17 02:33N 35°21' E 139°41'0 0.0
2014-Sep-17 01:33N 35°21' E 139°41'0 0.0
2014-Sep-17 00:33N 35°21' E 139°41'0 0.0
2014-Sep-16 23:33N 35°21' E 139°41'0 0.0
2014-Sep-16 22:33N 35°21' E 139°41'0 0.0
2014-Sep-16 21:33N 35°21' E 139°41'0 0.0
2014-Sep-16 20:30N 35°21' E 139°41'0 0.0
2014-Sep-16 19:32N 35°21' E 139°41'0 0.0
2014-Sep-16 18:33N 35°21' E 139°41'0 0.0
2014-Sep-16 17:33N 35°21' E 139°41'0 0.0
2014-Sep-16 16:32N 35°21' E 139°41'0 0.0
2014-Sep-16 15:29N 35°21' E 139°41'0 0.0
2014-Sep-16 14:32N 35°21' E 139°41'0 0.1
2014-Sep-16 13:32N 35°21' E 139°41'0 0.0
2014-Sep-16 12:32N 35°21' E 139°41'0 0.0
2014-Sep-16 11:32N 35°21' E 139°41'0 0.0
2014-Sep-16 10:32N 35°21' E 139°41'0 0.0
2014-Sep-16 09:32N 35°21' E 139°41'0 0.0
2014-Sep-16 08:32N 35°21' E 139°41'0 0.0
2014-Sep-16 07:32N 35°21' E 139°41'0 0.0
2014-Sep-16 06:32N 35°21' E 139°41'0 0.0
2014-Sep-16 05:32N 35°21' E 139°41'0 0.0
2014-Sep-16 04:32N 35°21' E 139°41'0 0.1
2014-Sep-16 03:32N 35°21' E 139°41'0 0.0
2014-Sep-16 02:32N 35°21' E 139°41'0 0.0
2014-Sep-16 01:32N 35°21' E 139°41'0 0.0
2014-Sep-16 00:26N 35°21' E 139°41'0 0.0
2014-Sep-15 23:32N 35°21' E 139°41'0 0.0
2014-Sep-15 22:32N 35°21' E 139°41'0 0.0
2014-Sep-15 21:32N 35°21' E 139°41'0 0.0
2014-Sep-15 20:32N 35°21' E 139°41'0 0.0
2014-Sep-15 19:32N 35°21' E 139°41'0 0.0
2014-Sep-15 18:32N 35°21' E 139°41'0 0.1
2014-Sep-15 17:32N 35°21' E 139°41'0 0.0
2014-Sep-15 16:32N 35°21' E 139°41'0 0.0
2014-Sep-15 15:32N 35°21' E 139°41'0 0.0
2014-Sep-15 14:32N 35°21' E 139°41'0 0.1
2014-Sep-15 13:32N 35°21' E 139°41'0 0.0
2014-Sep-15 12:32N 35°21' E 139°41'0 0.0
2014-Sep-15 11:32N 35°21' E 139°41'0 0.0
2014-Sep-15 10:32N 35°21' E 139°41'0 0.0
2014-Sep-15 09:32N 35°21' E 139°41'0 0.0
2014-Sep-15 08:32N 35°21' E 139°41'0 0.0
2014-Sep-15 07:32N 35°21' E 139°41'0 0.0
2014-Sep-15 06:32N 35°21' E 139°41'0 0.1
2014-Sep-15 05:32N 35°21' E 139°41'0 0.1
2014-Sep-15 04:32N 35°21' E 139°41'0 0.0
2014-Sep-15 03:32N 35°21' E 139°41'0 0.0
2014-Sep-15 02:32N 35°21' E 139°41'0 0.0
2014-Sep-15 01:32N 35°21' E 139°41'0 0.0
2014-Sep-15 00:32N 35°21' E 139°41'0 0.0
2014-Sep-14 23:32N 35°21' E 139°41'0 0.0
2014-Sep-14 22:32N 35°21' E 139°41'0 0.0
2014-Sep-14 21:32N 35°21' E 139°41'0 0.1
2014-Sep-14 20:32N 35°21' E 139°41'0 0.1
2014-Sep-14 19:32N 35°21' E 139°41'0 0.0
2014-Sep-14 18:32N 35°21' E 139°41'0 0.1
2014-Sep-14 17:32N 35°21' E 139°41'0 0.0
2014-Sep-14 16:32N 35°21' E 139°41'0 0.0
2014-Sep-14 15:32N 35°21' E 139°41'0 0.0
2014-Sep-14 14:32N 35°21' E 139°41'0 0.0
2014-Sep-14 13:32N 35°21' E 139°41'0 0.0
2014-Sep-14 12:32N 35°21' E 139°41'0 0.0
2014-Sep-14 11:32N 35°21' E 139°41'0 0.1
2014-Sep-14 10:32N 35°21' E 139°41'0 0.1
2014-Sep-14 09:32N 35°21' E 139°41'0 0.0
2014-Sep-14 08:32N 35°21' E 139°41'0 0.0
2014-Sep-14 07:29N 35°21' E 139°41'0 0.0
2014-Sep-14 06:32N 35°21' E 139°41'0 0.0
2014-Sep-14 05:29N 35°21' E 139°41'0 0.0
2014-Sep-14 04:32N 35°21' E 139°41'0 0.0
2014-Sep-14 03:32N 35°21' E 139°41'0 0.0
2014-Sep-14 02:32N 35°21' E 139°41'0 0.0
2014-Sep-14 01:32N 35°21' E 139°41'0 0.0
2014-Sep-13 21:32N 35°21' E 139°41'0 0.0
2014-Sep-13 20:32N 35°21' E 139°41'0 0.0
2014-Sep-13 19:32N 35°21' E 139°41'0 0.0
2014-Sep-13 18:32N 35°21' E 139°41'0 0.0
2014-Sep-13 17:32N 35°21' E 139°41'0 0.0
2014-Sep-13 16:32N 35°21' E 139°41'0 0.0
2014-Sep-13 15:32N 35°21' E 139°41'0 0.0
2014-Sep-13 14:32N 35°21' E 139°41'0 0.0
2014-Sep-13 13:32N 35°21' E 139°41'0 0.0
2014-Sep-13 12:32N 35°21' E 139°41'0 0.0
2014-Sep-13 11:32N 35°21' E 139°41'0 0.0
2014-Sep-13 10:29N 35°21' E 139°41'0 0.1
2014-Sep-13 09:32N 35°21' E 139°41'0 0.0
2014-Sep-13 08:32N 35°21' E 139°41'0 0.0
2014-Sep-13 07:32N 35°21' E 139°41'0 0.1
2014-Sep-13 06:32N 35°21' E 139°41'0 0.1
2014-Sep-13 05:32N 35°21' E 139°41'0 0.0
2014-Sep-13 04:34N 35°21' E 139°41'3 2.4
2014-Sep-13 03:31N 35°23' E 139°39'0 0.0
2014-Sep-13 02:31N 35°23' E 139°39'0 0.0
2014-Sep-13 01:31N 35°23' E 139°39'0 0.0
2014-Sep-13 00:31N 35°23' E 139°39'0 0.0
2014-Sep-12 23:31N 35°23' E 139°39'0 0.3
2014-Sep-12 22:34N 35°23' E 139°39'6 6.0
2014-Sep-12 21:33N 35°19' E 139°44'1010.0
2014-Sep-12 20:34N 35°09' E 139°46'10 9.4
2014-Sep-12 19:32N 34°60' E 139°43'8 8.2
2014-Sep-12 18:31N 34°52' E 139°47'15 6.8
2014-Sep-12 16:19N 34°38' E 139°55'  
Track history (hours):
 
Tides and Currents Weather Stations Pressure Air Temp Water Temp Dewpoint Dewpoint Depression Visibility Wind Speed Wind Dir Waves Ship Positions

Zenken Maru

Last reported at 2014-Sep-22 07:32 UTC. Time now 2014-Sep-22 08:13 UTC.
Position N 35°21' E 139°41'.

Length 98 m; draft 7.2 m.

Type: Cargo ship. MMSI: 431100955.

Date/timePositionNaut miles runAvg speedWind from/ knotsBaromVisibWave heightAir tempDewpointWater temp
2014-Sep-22 07:32N 35°21' E 139°41'3 2.6
2014-Sep-22 06:31N 35°23' E 139°39'0 0.0
2014-Sep-22 05:31N 35°23' E 139°39'0 0.0
2014-Sep-22 04:31N 35°23' E 139°39'0 0.0
2014-Sep-22 03:31N 35°23' E 139°39'0 0.0
2014-Sep-22 02:31N 35°23' E 139°39'0 0.0
2014-Sep-22 01:31N 35°23' E 139°39'0 0.0
2014-Sep-22 00:31N 35°23' E 139°39'0 0.0
2014-Sep-21 23:31N 35°23' E 139°39'0 0.3
2014-Sep-21 22:33N 35°24' E 139°39'3 2.9
2014-Sep-21 21:32N 35°21' E 139°41'0 0.0
2014-Sep-21 20:32N 35°21' E 139°41'0 0.0
2014-Sep-21 19:32N 35°21' E 139°41'0 0.0
2014-Sep-21 18:32N 35°21' E 139°41'0 0.0
2014-Sep-21 17:32N 35°21' E 139°41'0 0.0
2014-Sep-21 16:32N 35°21' E 139°41'0 0.0
2014-Sep-21 15:32N 35°21' E 139°41'0 0.0
2014-Sep-21 14:32N 35°21' E 139°41'0 0.0
2014-Sep-21 13:32N 35°21' E 139°41'0 0.0
2014-Sep-21 12:32N 35°21' E 139°41'0 0.0
2014-Sep-21 11:32N 35°21' E 139°41'0 0.0
2014-Sep-21 10:32N 35°21' E 139°41'0 0.0
2014-Sep-21 09:32N 35°21' E 139°41'0 0.0
2014-Sep-21 08:32N 35°21' E 139°41'0 0.0
2014-Sep-21 07:32N 35°21' E 139°41'0 0.0
2014-Sep-21 06:32N 35°21' E 139°41'0 0.0
2014-Sep-21 05:32N 35°21' E 139°41'0 0.0
2014-Sep-21 04:32N 35°21' E 139°41'0 0.0
2014-Sep-21 03:32N 35°21' E 139°41'0 0.0
2014-Sep-21 02:32N 35°21' E 139°41'0 0.0
2014-Sep-21 01:32N 35°21' E 139°41'0 0.0
2014-Sep-21 00:32N 35°21' E 139°41'0 0.0
2014-Sep-20 23:32N 35°21' E 139°41'0 0.0
2014-Sep-20 22:32N 35°21' E 139°41'0 0.0
2014-Sep-20 21:32N 35°21' E 139°41'0 0.0
2014-Sep-20 20:32N 35°21' E 139°41'0 0.0
2014-Sep-20 19:32N 35°21' E 139°41'0 0.0
2014-Sep-20 18:32N 35°21' E 139°41'0 0.0
2014-Sep-20 17:32N 35°21' E 139°41'0 0.0
2014-Sep-20 16:32N 35°21' E 139°41'0 0.0
2014-Sep-20 15:32N 35°21' E 139°41'0 0.0
2014-Sep-20 14:32N 35°21' E 139°41'0 0.0
2014-Sep-20 13:32N 35°21' E 139°41'0 0.0
2014-Sep-20 12:29N 35°21' E 139°41'0 0.0
2014-Sep-20 11:32N 35°21' E 139°41'0 0.0
2014-Sep-20 10:32N 35°21' E 139°41'0 0.0
2014-Sep-20 09:32N 35°21' E 139°41'0 0.0
2014-Sep-20 08:32N 35°21' E 139°41'0 0.0
2014-Sep-20 07:32N 35°21' E 139°41'0 0.0
2014-Sep-20 06:32N 35°21' E 139°41'0 0.0
2014-Sep-20 05:32N 35°21' E 139°41'0 0.0
2014-Sep-20 04:32N 35°21' E 139°41'0 0.0
2014-Sep-20 03:32N 35°21' E 139°41'0 0.0
2014-Sep-20 02:32N 35°21' E 139°41'0 0.0
2014-Sep-20 01:32N 35°21' E 139°41'0 0.0
2014-Sep-20 00:32N 35°21' E 139°41'0 0.0
2014-Sep-19 23:32N 35°21' E 139°41'0 0.0
2014-Sep-19 22:32N 35°21' E 139°41'0 0.0
2014-Sep-19 21:32N 35°21' E 139°41'0 0.0
2014-Sep-19 20:32N 35°21' E 139°41'0 0.0
2014-Sep-19 19:32N 35°21' E 139°41'0 0.0
2014-Sep-19 18:29N 35°21' E 139°41'0 0.1
2014-Sep-19 17:33N 35°21' E 139°41'1010.1
2014-Sep-19 16:33N 35°12' E 139°47'2 0.1
2014-Sep-18 05:30N 35°10' E 139°46'1111.5
2014-Sep-18 04:33N 35°20' E 139°42'4 3.5
2014-Sep-18 03:29N 35°23' E 139°39'0 0.0
2014-Sep-18 02:32N 35°23' E 139°39'0 0.0
2014-Sep-18 01:32N 35°23' E 139°39'0 0.0
2014-Sep-18 00:32N 35°23' E 139°39'0 0.0
2014-Sep-17 23:32N 35°23' E 139°39'0 0.0
2014-Sep-17 22:32N 35°23' E 139°39'0 0.0
2014-Sep-17 21:32N 35°23' E 139°39'0 0.0
2014-Sep-17 20:32N 35°23' E 139°39'0 0.0
2014-Sep-17 19:32N 35°23' E 139°39'0 0.0
2014-Sep-17 18:32N 35°23' E 139°39'0 0.0
2014-Sep-17 17:32N 35°23' E 139°39'0 0.0
2014-Sep-17 16:32N 35°23' E 139°39'0 0.0
2014-Sep-17 15:32N 35°23' E 139°39'0 0.0
2014-Sep-17 14:32N 35°23' E 139°39'0 0.0
2014-Sep-17 13:32N 35°23' E 139°39'0 0.0
2014-Sep-17 12:32N 35°23' E 139°39'0 0.0
2014-Sep-17 11:32N 35°23' E 139°39'0 0.0
2014-Sep-17 10:32N 35°23' E 139°39'0 0.0
2014-Sep-17 09:32N 35°23' E 139°39'0 0.0
2014-Sep-17 08:32N 35°23' E 139°39'0 0.0
2014-Sep-17 07:26N 35°23' E 139°39'0 0.0
2014-Sep-17 06:32N 35°23' E 139°39'0 0.0
2014-Sep-17 05:32N 35°23' E 139°39'0 0.0
2014-Sep-17 04:32N 35°23' E 139°39'0 0.3
2014-Sep-17 03:33N 35°23' E 139°39'3 2.6
2014-Sep-17 02:33N 35°21' E 139°41'0 0.0
2014-Sep-17 01:33N 35°21' E 139°41'0 0.0
2014-Sep-17 00:33N 35°21' E 139°41'0 0.0
2014-Sep-16 23:33N 35°21' E 139°41'0 0.0
2014-Sep-16 22:33N 35°21' E 139°41'0 0.0
2014-Sep-16 21:33N 35°21' E 139°41'0 0.0
2014-Sep-16 20:30N 35°21' E 139°41'0 0.0
2014-Sep-16 19:32N 35°21' E 139°41'0 0.0
2014-Sep-16 18:33N 35°21' E 139°41'0 0.0
2014-Sep-16 17:33N 35°21' E 139°41'0 0.0
2014-Sep-16 16:32N 35°21' E 139°41'0 0.0
2014-Sep-16 15:29N 35°21' E 139°41'0 0.0
2014-Sep-16 14:32N 35°21' E 139°41'0 0.1
2014-Sep-16 13:32N 35°21' E 139°41'0 0.0
2014-Sep-16 12:32N 35°21' E 139°41'0 0.0
2014-Sep-16 11:32N 35°21' E 139°41'0 0.0
2014-Sep-16 10:32N 35°21' E 139°41'0 0.0
2014-Sep-16 09:32N 35°21' E 139°41'0 0.0
2014-Sep-16 08:32N 35°21' E 139°41'0 0.0
2014-Sep-16 07:32N 35°21' E 139°41'0 0.0
2014-Sep-16 06:32N 35°21' E 139°41'0 0.0
2014-Sep-16 05:32N 35°21' E 139°41'0 0.0
2014-Sep-16 04:32N 35°21' E 139°41'0 0.1
2014-Sep-16 03:32N 35°21' E 139°41'0 0.0
2014-Sep-16 02:32N 35°21' E 139°41'0 0.0
2014-Sep-16 01:32N 35°21' E 139°41'0 0.0
2014-Sep-16 00:26N 35°21' E 139°41'0 0.0
2014-Sep-15 23:32N 35°21' E 139°41'0 0.0
2014-Sep-15 22:32N 35°21' E 139°41'0 0.0
2014-Sep-15 21:32N 35°21' E 139°41'0 0.0
2014-Sep-15 20:32N 35°21' E 139°41'0 0.0
2014-Sep-15 19:32N 35°21' E 139°41'0 0.0
2014-Sep-15 18:32N 35°21' E 139°41'0 0.1
2014-Sep-15 17:32N 35°21' E 139°41'0 0.0
2014-Sep-15 16:32N 35°21' E 139°41'0 0.0
2014-Sep-15 15:32N 35°21' E 139°41'0 0.0
2014-Sep-15 14:32N 35°21' E 139°41'0 0.1
2014-Sep-15 13:32N 35°21' E 139°41'0 0.0
2014-Sep-15 12:32N 35°21' E 139°41'0 0.0
2014-Sep-15 11:32N 35°21' E 139°41'0 0.0
2014-Sep-15 10:32N 35°21' E 139°41'0 0.0
2014-Sep-15 09:32N 35°21' E 139°41'0 0.0
2014-Sep-15 08:32N 35°21' E 139°41'0 0.0
2014-Sep-15 07:32N 35°21' E 139°41'0 0.0
2014-Sep-15 06:32N 35°21' E 139°41'0 0.1
2014-Sep-15 05:32N 35°21' E 139°41'0 0.1
2014-Sep-15 04:32N 35°21' E 139°41'0 0.0
2014-Sep-15 03:32N 35°21' E 139°41'0 0.0
2014-Sep-15 02:32N 35°21' E 139°41'0 0.0
2014-Sep-15 01:32N 35°21' E 139°41'0 0.0
2014-Sep-15 00:32N 35°21' E 139°41'0 0.0
2014-Sep-14 23:32N 35°21' E 139°41'0 0.0
2014-Sep-14 22:32N 35°21' E 139°41'0 0.0
2014-Sep-14 21:32N 35°21' E 139°41'0 0.1
2014-Sep-14 20:32N 35°21' E 139°41'0 0.1
2014-Sep-14 19:32N 35°21' E 139°41'0 0.0
2014-Sep-14 18:32N 35°21' E 139°41'0 0.1
2014-Sep-14 17:32N 35°21' E 139°41'0 0.0
2014-Sep-14 16:32N 35°21' E 139°41'0 0.0
2014-Sep-14 15:32N 35°21' E 139°41'0 0.0
2014-Sep-14 14:32N 35°21' E 139°41'0 0.0
2014-Sep-14 13:32N 35°21' E 139°41'0 0.0
2014-Sep-14 12:32N 35°21' E 139°41'0 0.0
2014-Sep-14 11:32N 35°21' E 139°41'0 0.1
2014-Sep-14 10:32N 35°21' E 139°41'0 0.1
2014-Sep-14 09:32N 35°21' E 139°41'0 0.0
2014-Sep-14 08:32N 35°21' E 139°41'0 0.0
2014-Sep-14 07:29N 35°21' E 139°41'0 0.0
2014-Sep-14 06:32N 35°21' E 139°41'0 0.0
2014-Sep-14 05:29N 35°21' E 139°41'0 0.0
2014-Sep-14 04:32N 35°21' E 139°41'0 0.0
2014-Sep-14 03:32N 35°21' E 139°41'0 0.0
2014-Sep-14 02:32N 35°21' E 139°41'0 0.0
2014-Sep-14 01:32N 35°21' E 139°41'0 0.0
2014-Sep-13 21:32N 35°21' E 139°41'0 0.0
2014-Sep-13 20:32N 35°21' E 139°41'0 0.0
2014-Sep-13 19:32N 35°21' E 139°41'0 0.0
2014-Sep-13 18:32N 35°21' E 139°41'0 0.0
2014-Sep-13 17:32N 35°21' E 139°41'0 0.0
2014-Sep-13 16:32N 35°21' E 139°41'0 0.0
2014-Sep-13 15:32N 35°21' E 139°41'0 0.0
2014-Sep-13 14:32N 35°21' E 139°41'0 0.0
2014-Sep-13 13:32N 35°21' E 139°41'0 0.0
2014-Sep-13 12:32N 35°21' E 139°41'0 0.0
2014-Sep-13 11:32N 35°21' E 139°41'0 0.0
2014-Sep-13 10:29N 35°21' E 139°41'0 0.1
2014-Sep-13 09:32N 35°21' E 139°41'0 0.0
2014-Sep-13 08:32N 35°21' E 139°41'0 0.0
2014-Sep-13 07:32N 35°21' E 139°41'0 0.1
2014-Sep-13 06:32N 35°21' E 139°41'0 0.1
2014-Sep-13 05:32N 35°21' E 139°41'0 0.0
2014-Sep-13 04:34N 35°21' E 139°41'3 2.4
2014-Sep-13 03:31N 35°23' E 139°39'0 0.0
2014-Sep-13 02:31N 35°23' E 139°39'0 0.0
2014-Sep-13 01:31N 35°23' E 139°39'0 0.0
2014-Sep-13 00:31N 35°23' E 139°39'0 0.0
2014-Sep-12 23:31N 35°23' E 139°39'0 0.3
2014-Sep-12 22:34N 35°23' E 139°39'6 6.0
2014-Sep-12 21:33N 35°19' E 139°44'1010.0
2014-Sep-12 20:34N 35°09' E 139°46'10 9.4
2014-Sep-12 19:32N 34°60' E 139°43'8 8.2
2014-Sep-12 18:31N 34°52' E 139°47'15 6.8
2014-Sep-12 16:19N 34°38' E 139°55'  

Dump ship's entire track history